Time;durP1;ratioP1;P1;durP2;ratioP2;P2;SDS_P1;SDS_P2;PMS_P1;PMS_P2;Temp;Humidity;BMP_temperature;BMP_pressure;BME280_temperature;BME280_humidity;BME280_pressure;Samples;Min_cycle;Max_cycle;Signal;HPM_P1;HPM_P2
2022/04/23 00:00:48;;;;;;;21.50;19.23;;;12.00;99.90;;;;;;5093766;28;20217;-77
2022/04/23 00:03:16;;;;;;;22.50;20.30;;;12.00;99.90;;;;;;5081907;28;20200;-77
2022/04/23 00:05:43;;;;;;;21.60;19.53;;;11.90;99.90;;;;;;5085238;28;20193;-77
2022/04/23 00:08:11;;;;;;;22.23;20.00;;;12.00;99.90;;;;;;5090973;28;20200;-77
2022/04/23 00:10:38;;;;;;;21.13;18.98;;;12.00;99.90;;;;;;5083822;28;20224;-77
2022/04/23 00:13:13;;;;;;;21.17;19.17;;;12.10;99.90;;;;;;5084320;28;20197;-78
2022/04/23 00:15:40;;;;;;;22.57;20.37;;;11.90;99.90;;;;;;5096667;28;20197;-77
2022/04/23 00:18:10;;;;;;;23.23;20.92;;;12.00;99.90;;;;;;5091542;28;20204;-78
2022/04/23 00:20:38;;;;;;;23.27;20.87;;;11.80;99.90;;;;;;5088239;28;20576;-77
2022/04/23 00:23:06;;;;;;;21.92;19.83;;;11.90;99.90;;;;;;5087910;28;20201;-77
2022/04/23 00:25:36;;;;;;;21.05;19.05;;;11.90;99.90;;;;;;5101273;28;20705;-77
2022/04/23 00:28:05;;;;;;;22.52;20.13;;;12.10;99.90;;;;;;5091400;28;20631;-77
2022/04/23 00:30:33;;;;;;;24.13;21.63;;;12.20;99.90;;;;;;5091139;28;20542;-77
2022/04/23 00:33:00;;;;;;;24.43;21.93;;;11.90;99.90;;;;;;5090534;28;20197;-77
2022/04/23 00:35:30;;;;;;;25.17;21.57;;;11.90;99.90;;;;;;5078424;28;20215;-77
2022/04/23 00:37:57;;;;;;;25.43;22.87;;;11.90;99.90;;;;;;5081496;28;20196;-76
2022/04/23 00:40:25;;;;;;;25.70;22.97;;;11.90;99.90;;;;;;5085542;28;20224;-77
2022/04/23 00:42:55;;;;;;;24.33;22.00;;;12.00;99.90;;;;;;5085249;28;20201;-77
2022/04/23 00:45:23;;;;;;;26.53;23.80;;;12.00;99.90;;;;;;5087819;28;20208;-77
2022/04/23 00:47:50;;;;;;;27.47;24.73;;;12.00;99.90;;;;;;5090849;28;20627;-77
2022/04/23 00:50:21;;;;;;;26.73;23.93;;;11.90;99.90;;;;;;5096929;28;20578;-77
2022/04/23 00:52:50;;;;;;;27.43;24.73;;;11.90;99.90;;;;;;5083467;28;20204;-77
2022/04/23 00:55:19;;;;;;;28.20;25.40;;;11.80;99.90;;;;;;5082753;28;20201;-78
2022/04/23 00:57:46;;;;;;;27.80;25.00;;;11.90;99.90;;;;;;5083185;28;20193;-77
2022/04/23 01:00:14;;;;;;;29.20;26.10;;;11.90;99.90;;;;;;5087458;28;20679;-77
2022/04/23 01:02:54;;;;;;;29.30;26.50;;;11.90;99.90;;;;;;5090280;28;20200;-77
2022/04/23 01:05:23;;;;;;;29.87;26.67;;;11.90;99.90;;;;;;5083122;28;20197;-77
2022/04/23 01:07:55;;;;;;;29.93;26.83;;;12.00;99.90;;;;;;5080039;28;20205;-77
2022/04/23 01:10:26;;;;;;;29.60;26.53;;;12.10;99.90;;;;;;5083360;28;20221;-77
2022/04/23 01:12:53;;;;;;;28.10;25.20;;;11.90;99.90;;;;;;5090928;28;20571;-77
2022/04/23 01:15:22;;;;;;;30.63;27.53;;;12.00;99.90;;;;;;5087480;28;20204;-77
2022/04/23 01:17:49;;;;;;;30.43;27.43;;;11.90;99.90;;;;;;5082176;28;20202;-77
2022/04/23 01:20:19;;;;;;;30.47;27.23;;;11.90;99.90;;;;;;5082363;28;20221;-77
2022/04/23 01:22:55;;;;;;;32.33;27.83;;;11.90;99.90;;;;;;5083145;28;20201;-77
2022/04/23 01:25:23;;;;;;;29.80;26.80;;;11.80;99.90;;;;;;5088828;28;20204;-77
2022/04/23 01:27:52;;;;;;;31.70;28.47;;;11.80;99.90;;;;;;5090205;28;20189;-77
2022/04/23 01:30:19;;;;;;;31.23;27.67;;;11.70;99.90;;;;;;5087194;28;20209;-77
2022/04/23 01:32:47;;;;;;;29.23;26.13;;;11.70;99.90;;;;;;5082097;28;20197;-78
2022/04/23 01:35:14;;;;;;;30.30;27.13;;;11.60;99.90;;;;;;5107592;28;20205;-77
2022/04/23 01:37:43;;;;;;;29.77;26.63;;;11.70;99.90;;;;;;5082983;28;20201;-76
2022/04/23 01:40:11;;;;;;;30.60;27.40;;;11.70;99.90;;;;;;5084060;28;20240;-77
2022/04/23 01:42:39;;;;;;;30.50;26.83;;;11.50;99.90;;;;;;5085508;28;20202;-77
2022/04/23 01:45:07;;;;;;;29.50;26.33;;;11.50;99.90;;;;;;5086235;28;20208;-77
2022/04/23 01:47:35;;;;;;;30.17;26.97;;;11.60;99.90;;;;;;5086702;28;20194;-77
2022/04/23 01:50:02;;;;;;;29.97;26.70;;;11.70;99.90;;;;;;5085166;28;20217;-77
2022/04/23 01:52:30;;;;;;;29.07;26.03;;;11.60;99.90;;;;;;5086463;28;20213;-77
2022/04/23 01:55:01;;;;;;;29.87;26.67;;;11.70;99.90;;;;;;5087230;28;20197;-77
2022/04/23 01:57:30;;;;;;;29.67;26.67;;;11.60;99.90;;;;;;5078307;28;20201;-77
2022/04/23 01:59:58;;;;;;;29.47;26.37;;;11.60;99.90;;;;;;5080491;28;20226;-77
2022/04/23 02:02:25;;;;;;;29.27;25.90;;;11.60;99.90;;;;;;5087086;28;20201;-77
2022/04/23 02:04:52;;;;;;;30.10;27.00;;;11.50;99.90;;;;;;5083407;28;20200;-78
2022/04/23 02:07:22;;;;;;;28.60;25.50;;;11.60;99.90;;;;;;5083600;28;20188;-77
2022/04/23 02:09:49;;;;;;;30.10;26.90;;;11.80;99.90;;;;;;5079315;28;20216;-79
2022/04/23 02:12:19;;;;;;;28.10;25.30;;;11.50;99.90;;;;;;5090087;28;20199;-77
2022/04/23 02:14:46;;;;;;;29.03;25.93;;;11.60;99.90;;;;;;5091828;28;20196;-77
2022/04/23 02:17:14;;;;;;;28.83;24.87;;;11.70;99.90;;;;;;5082303;28;20206;-77
2022/04/23 02:19:41;;;;;;;29.70;26.67;;;11.70;99.90;;;;;;5071926;28;20237;-77
2022/04/23 02:22:09;;;;;;;30.37;27.20;;;11.70;99.90;;;;;;5101577;28;20208;-77
2022/04/23 02:24:37;;;;;;;29.87;26.67;;;11.80;99.90;;;;;;5087335;28;20204;-77
2022/04/23 02:27:04;;;;;;;28.93;25.83;;;11.90;99.90;;;;;;5088660;28;20554;-77
2022/04/23 02:29:33;;;;;;;27.93;25.07;;;11.70;99.90;;;;;;5087250;28;20189;-77
2022/04/23 02:32:01;;;;;;;27.00;24.07;;;11.70;99.90;;;;;;5082767;28;20205;-77
2022/04/23 02:34:30;;;;;;;28.80;25.63;;;11.70;99.90;;;;;;5079043;28;20196;-77
2022/04/23 02:36:58;;;;;;;29.20;26.10;;;11.60;99.90;;;;;;5088805;28;20197;-77
2022/04/23 02:39:25;;;;;;;26.80;24.03;;;11.60;99.90;;;;;;5070900;28;20562;-77
2022/04/23 02:41:53;;;;;;;26.30;23.50;;;11.60;99.90;;;;;;5083475;28;20201;-79
2022/04/23 02:44:20;;;;;;;28.40;25.43;;;11.70;99.90;;;;;;5087515;28;20706;-77
2022/04/23 02:46:49;;;;;;;28.20;25.20;;;11.70;99.90;;;;;;5083529;28;20194;-79
2022/04/23 02:49:16;;;;;;;27.53;24.73;;;11.70;99.90;;;;;;5090425;28;20208;-77
2022/04/23 02:51:51;;;;;;;29.60;26.57;;;11.60;99.90;;;;;;5083312;28;20225;-77
2022/04/23 02:54:19;;;;;;;28.33;25.33;;;11.50;99.90;;;;;;5086912;28;20202;-77
2022/04/23 02:56:46;;;;;;;27.20;24.47;;;11.50;99.90;;;;;;5089068;28;20197;-77
2022/04/23 02:59:13;;;;;;;28.13;25.17;;;11.70;99.90;;;;;;5088849;28;20204;-77
2022/04/23 03:01:41;;;;;;;28.03;25.10;;;11.70;99.90;;;;;;5080366;28;20253;-77
2022/04/23 03:04:12;;;;;;;28.80;25.47;;;11.80;99.90;;;;;;5083277;28;20197;-76
2022/04/23 03:06:39;;;;;;;29.83;25.93;;;11.80;99.90;;;;;;5089268;28;20193;-77
2022/04/23 03:09:07;;;;;;;28.30;25.40;;;11.80;99.90;;;;;;5081562;28;20197;-77
2022/04/23 03:11:34;;;;;;;28.83;25.87;;;11.80;99.90;;;;;;5084749;28;20212;-77
2022/04/23 03:14:03;;;;;;;28.00;25.03;;;11.80;99.90;;;;;;5090361;28;20599;-77
2022/04/23 03:16:37;;;;;;;28.33;25.43;;;11.70;99.90;;;;;;5080007;28;20252;-76
2022/04/23 03:19:04;;;;;;;29.77;26.67;;;11.80;99.90;;;;;;5081433;28;20694;-77
2022/04/23 03:21:33;;;;;;;29.03;26.00;;;11.80;99.90;;;;;;5090464;28;20219;-77
2022/04/23 03:24:01;;;;;;;28.70;25.67;;;11.80;99.90;;;;;;5083811;28;20193;-77
2022/04/23 03:26:29;;;;;;;28.87;25.97;;;11.70;99.90;;;;;;5089256;28;20193;-77
2022/04/23 03:28:58;;;;;;;27.67;24.90;;;11.80;99.90;;;;;;5078352;28;20205;-77
2022/04/23 03:31:26;;;;;;;28.90;25.90;;;11.80;99.90;;;;;;5092915;28;20209;-77
2022/04/23 03:33:53;;;;;;;29.40;26.37;;;11.70;99.90;;;;;;5091258;28;20200;-77
2022/04/23 03:36:20;;;;;;;29.90;26.70;;;11.80;99.90;;;;;;5085255;28;20212;-77
2022/04/23 03:38:51;;;;;;;28.17;25.03;;;11.90;99.90;;;;;;5086440;28;20564;-77
2022/04/23 03:41:41;;;;;;;29.00;26.10;;;11.80;99.90;;;;;;5090488;28;20212;-77
2022/04/23 03:44:09;;;;;;;28.20;25.05;;;11.90;99.90;;;;;;5087182;28;20181;-77
2022/04/23 03:46:36;;;;;;;29.77;26.67;;;11.90;99.90;;;;;;5087426;28;20220;-77
2022/04/23 03:49:04;;;;;;;29.75;26.65;;;11.90;99.90;;;;;;5088884;28;20204;-77
2022/04/23 03:51:31;;;;;;;30.57;27.47;;;11.80;99.90;;;;;;5087169;28;20587;-78
2022/04/23 03:54:00;;;;;;;29.60;26.60;;;11.80;99.90;;;;;;5089159;28;20556;-77
2022/04/23 03:56:28;;;;;;;30.13;26.92;;;11.80;99.90;;;;;;5089170;28;20193;-77
2022/04/23 03:59:00;;;;;;;29.85;26.65;;;11.90;99.90;;;;;;5092003;28;20535;-77
2022/04/23 04:01:28;;;;;;;31.33;28.08;;;11.90;99.90;;;;;;5105258;28;20213;-77
2022/04/23 04:03:55;;;;;;;30.10;27.00;;;11.70;99.90;;;;;;5088559;28;20539;-77
2022/04/23 04:07:05;;;;;;;31.38;28.20;;;11.80;99.90;;;;;;5087580;28;20197;-78
2022/04/23 04:09:34;;;;;;;30.80;27.70;;;11.70;99.90;;;;;;5082858;28;20193;-77
2022/04/23 04:12:06;;;;;;;30.20;26.90;;;11.70;99.90;;;;;;5086311;28;20201;-76
2022/04/23 04:14:38;;;;;;;30.83;27.40;;;11.70;99.90;;;;;;5093486;28;20203;-77
2022/04/23 04:17:09;;;;;;;30.80;27.70;;;11.80;99.90;;;;;;5089619;28;20650;-77
2022/04/23 04:19:37;;;;;;;31.53;28.17;;;11.90;99.90;;;;;;5073384;28;20209;-77
2022/04/23 04:22:06;;;;;;;29.73;26.57;;;11.90;99.90;;;;;;5086107;28;20235;-77
2022/04/23 04:24:37;;;;;;;30.63;27.60;;;12.00;99.90;;;;;;5083253;28;20189;-77
2022/04/23 04:27:06;;;;;;;31.33;28.17;;;12.00;99.90;;;;;;5087644;28;20198;-78
2022/04/23 04:29:33;;;;;;;32.87;28.73;;;11.90;99.90;;;;;;5085622;28;20197;-77
2022/04/23 04:32:00;;;;;;;31.13;27.83;;;12.00;99.90;;;;;;5091244;28;20192;-76
2022/04/23 04:34:30;;;;;;;31.43;28.17;;;12.00;99.90;;;;;;5093577;28;20200;-76
2022/04/23 04:37:03;;;;;;;31.67;28.37;;;12.00;99.90;;;;;;5087884;28;20695;-76
2022/04/23 04:39:31;;;;;;;30.70;27.47;;;11.90;99.90;;;;;;5082873;28;20189;-76
2022/04/23 04:42:03;;;;;;;31.27;28.07;;;11.90;99.90;;;;;;5090297;28;20212;-75
2022/04/23 04:44:31;;;;;;;30.57;27.43;;;12.00;99.90;;;;;;5090387;28;20524;-76
2022/04/23 04:47:11;;;;;;;30.87;27.67;;;12.00;99.90;;;;;;5077036;28;20201;-80
2022/04/23 04:49:40;;;;;;;31.70;28.30;;;12.00;99.90;;;;;;5091407;28;20204;-76
2022/04/23 04:52:07;;;;;;;33.23;29.63;;;11.90;99.90;;;;;;5083628;28;20217;-76
2022/04/23 04:54:35;;;;;;;31.73;28.43;;;12.00;99.90;;;;;;5093813;28;20197;-76
2022/04/23 04:57:05;;;;;;;31.47;28.07;;;12.10;99.90;;;;;;5081044;28;20225;-77
2022/04/23 04:59:35;;;;;;;30.70;27.50;;;12.00;99.90;;;;;;5091860;28;20186;-76
2022/04/23 05:02:03;;;;;;;32.27;28.77;;;12.10;99.90;;;;;;5088687;28;20205;-76
2022/04/23 05:04:31;;;;;;;31.10;27.83;;;12.10;99.90;;;;;;5090659;28;20206;-76
2022/04/23 05:06:59;;;;;;;32.50;29.10;;;12.10;99.90;;;;;;5092128;28;20193;-76
2022/04/23 05:09:26;;;;;;;32.40;28.90;;;11.90;99.90;;;;;;5083004;28;20622;-76
2022/04/23 05:11:53;;;;;;;32.60;29.10;;;11.90;99.90;;;;;;5091372;28;20197;-76
2022/04/23 05:14:22;;;;;;;32.83;29.40;;;12.00;99.90;;;;;;5089100;28;20212;-76
2022/04/23 05:16:52;;;;;;;30.45;27.38;;;12.10;99.90;;;;;;5085373;28;20208;-76
2022/04/23 05:19:19;;;;;;;33.53;30.17;;;12.00;99.90;;;;;;5088968;28;20562;-76
2022/04/23 05:21:47;;;;;;;32.27;29.03;;;11.90;99.90;;;;;;5085467;28;20220;-76
2022/04/23 05:24:18;;;;;;;33.07;29.57;;;12.00;99.90;;;;;;5090272;28;20201;-74
2022/04/23 05:26:46;;;;;;;29.70;26.57;;;12.10;99.90;;;;;;5083828;28;20208;-74
2022/04/23 05:29:13;;;;;;;27.60;24.80;;;12.30;99.90;;;;;;5086343;28;20197;-78
2022/04/23 05:31:42;;;;;;;31.63;28.30;;;12.80;99.90;;;;;;5088119;28;20570;-74
2022/04/23 05:34:09;;;;;;;33.23;29.63;;;12.90;99.90;;;;;;5088599;28;20201;-78
2022/04/23 05:36:37;;;;;;;34.10;30.60;;;12.40;99.90;;;;;;5081587;28;20208;-75
2022/04/23 05:39:04;;;;;;;35.05;31.45;;;12.40;99.90;;;;;;5083737;28;20197;-75
2022/04/23 05:41:33;;;;;;;34.50;30.90;;;12.10;99.90;;;;;;5086859;28;20225;-76
2022/04/23 05:44:07;;;;;;;33.35;29.85;;;12.30;99.90;;;;;;5090422;28;20671;-75
2022/04/23 05:46:56;;;;;;;33.83;30.33;;;12.30;99.90;;;;;;5086436;28;20205;-75
2022/04/23 05:49:24;;;;;;;34.93;31.23;;;12.30;99.90;;;;;;5080812;28;20197;-75
2022/04/23 05:51:52;;;;;;;34.13;30.53;;;12.00;99.90;;;;;;5085032;28;20212;-75
2022/04/23 05:54:22;;;;;;;35.90;32.20;;;12.10;99.90;;;;;;5080123;28;20189;-75
2022/04/23 05:56:52;;;;;;;34.43;30.77;;;12.10;99.90;;;;;;5084814;28;20205;-75
2022/04/23 05:59:19;;;;;;;35.10;31.40;;;12.20;99.90;;;;;;5089782;28;20244;-75
2022/04/23 06:01:49;;;;;;;36.47;32.58;;;12.20;99.90;;;;;;5084687;28;20212;-77
2022/04/23 06:04:17;;;;;;;35.90;32.10;;;12.30;99.90;;;;;;5088665;28;20208;-75
2022/04/23 06:06:48;;;;;;;33.95;30.33;;;12.30;99.90;;;;;;5083148;28;20194;-75
2022/04/23 06:09:34;;;;;;;37.08;32.20;;;12.30;99.90;;;;;;5090927;28;20209;-75
2022/04/23 06:12:17;;;;;;;35.13;31.43;;;12.40;99.90;;;;;;5084166;28;20210;-75
2022/04/23 06:14:45;;;;;;;35.20;31.47;;;12.30;99.90;;;;;;5084741;28;20212;-75
2022/04/23 06:17:13;;;;;;;34.58;30.90;;;12.40;99.90;;;;;;5076889;28;20198;-76
2022/04/23 06:19:43;;;;;;;35.33;31.70;;;12.50;99.90;;;;;;5089785;28;20201;-75
2022/04/23 06:22:11;;;;;;;34.53;30.80;;;12.70;99.90;;;;;;5089096;28;20671;-75
2022/04/23 06:24:49;;;;;;;33.53;29.60;;;12.70;99.90;;;;;;5081397;28;20554;-75
2022/04/23 06:27:16;;;;;;;33.90;30.25;;;12.70;99.90;;;;;;5086956;28;20196;-76
2022/04/23 06:29:44;;;;;;;37.53;32.28;;;12.70;99.90;;;;;;5087173;28;20205;-74
2022/04/23 06:32:12;;;;;;;35.45;31.17;;;12.70;99.90;;;;;;5097363;28;20192;-75
2022/04/23 06:34:40;;;;;;;35.45;31.75;;;12.80;99.90;;;;;;5088862;28;20542;-74
2022/04/23 06:37:10;;;;;;;34.60;31.05;;;12.70;99.90;;;;;;5081175;28;20190;-74
2022/04/23 06:39:37;;;;;;;36.15;32.17;;;12.80;99.90;;;;;;5084238;28;20197;-74
2022/04/23 06:42:15;;;;;;;36.67;32.47;;;12.90;99.90;;;;;;5084003;28;20675;-74
2022/04/23 06:44:45;;;;;;;35.60;31.60;;;12.80;99.90;;;;;;5084317;28;20196;-74
2022/04/23 06:47:15;;;;;;;37.40;33.50;;;12.90;99.90;;;;;;5078407;28;20197;-74
2022/04/23 06:49:42;;;;;;;35.78;32.05;;;12.90;99.90;;;;;;5090428;28;20193;-74
2022/04/23 06:52:11;;;;;;;35.67;31.75;;;12.80;99.90;;;;;;5078022;28;20200;-74
2022/04/23 06:54:38;;;;;;;37.22;33.33;;;13.00;99.90;;;;;;5074908;28;20280;-74
2022/04/23 06:57:06;;;;;;;36.22;32.45;;;13.00;99.90;;;;;;5077547;28;20193;-74
2022/04/23 06:59:34;;;;;;;36.58;32.75;;;13.10;99.90;;;;;;5087528;28;20205;-74
2022/04/23 07:02:30;;;;;;;34.95;31.15;;;13.20;99.90;;;;;;5086640;28;20228;-74
2022/04/23 07:04:58;;;;;;;35.75;31.77;;;13.30;99.90;;;;;;5092039;28;20193;-74
2022/04/23 07:07:27;;;;;;;35.13;31.30;;;13.30;99.90;;;;;;5091129;28;20562;-74
2022/04/23 07:09:55;;;;;;;35.83;32.08;;;13.30;99.90;;;;;;5090996;28;20217;-76
2022/04/23 07:12:22;;;;;;;35.10;31.38;;;13.30;99.90;;;;;;5079522;28;20197;-74
2022/04/23 07:14:49;;;;;;;37.13;33.13;;;13.20;99.90;;;;;;5081887;28;20200;-75
2022/04/23 07:17:17;;;;;;;36.08;32.22;;;13.10;99.90;;;;;;5081712;28;20201;-75
2022/04/23 07:19:44;;;;;;;36.58;32.58;;;13.30;99.90;;;;;;5082370;28;20190;-75
2022/04/23 07:22:12;;;;;;;36.38;32.58;;;13.50;99.90;;;;;;5088927;28;20221;-75
2022/04/23 07:24:40;;;;;;;37.63;33.53;;;13.40;99.90;;;;;;5087034;28;20204;-74
2022/04/23 07:27:32;;;;;;;37.45;33.45;;;13.40;99.90;;;;;;5084585;28;20218;-74
2022/04/23 07:30:00;;;;;;;35.78;31.98;;;13.30;99.90;;;;;;5099144;28;20216;-75
2022/04/23 07:32:31;;;;;;;36.17;32.38;;;13.50;99.90;;;;;;5091302;28;20562;-74
2022/04/23 07:37:40;;;;;;;37.50;32.28;;;13.70;99.90;;;;;;5059236;28;20226;-74
2022/04/23 07:40:12;;;;;;;36.97;33.03;;;13.40;99.90;;;;;;5078906;28;20212;-74
2022/04/23 07:42:40;;;;;;;37.55;33.50;;;13.60;99.90;;;;;;5075937;28;20217;-74
2022/04/23 07:45:09;;;;;;;38.35;33.92;;;13.40;99.90;;;;;;5082720;28;20194;-74
2022/04/23 07:47:36;;;;;;;39.75;33.28;;;13.70;99.90;;;;;;5086536;28;20200;-74
2022/04/23 07:50:04;;;;;;;38.55;34.38;;;13.80;99.90;;;;;;5087943;28;20572;-74
2022/04/23 07:52:50;;;;;;;36.50;32.50;;;13.90;99.90;;;;;;5072452;28;20201;-75
2022/04/23 07:55:19;;;;;;;35.17;31.45;;;13.90;99.90;;;;;;5084965;28;20571;-74
2022/04/23 07:57:49;;;;;;;37.08;33.17;;;14.00;99.90;;;;;;5089560;28;20208;-74
2022/04/23 08:00:17;;;;;;;37.35;33.30;;;14.00;99.90;;;;;;5092181;28;20227;-74
2022/04/23 08:02:44;;;;;;;35.40;31.60;;;13.90;99.90;;;;;;5092502;28;20213;-74
2022/04/23 08:05:12;;;;;;;36.25;32.50;;;14.10;99.90;;;;;;5094429;28;20197;-75
2022/04/23 08:07:40;;;;;;;34.78;31.08;;;14.10;99.90;;;;;;5093668;28;20526;-76
2022/04/23 08:10:09;;;;;;;35.53;31.73;;;14.20;99.90;;;;;;5094628;28;20229;-74
2022/04/23 08:12:38;;;;;;;37.65;33.67;;;14.30;99.90;;;;;;5092556;28;20193;-74
2022/04/23 08:15:06;;;;;;;36.55;32.53;;;14.40;99.90;;;;;;5087156;28;20185;-74
2022/04/23 08:17:47;;;;;;;35.55;31.25;;;14.40;99.90;;;;;;5090527;28;20197;-74
2022/04/23 08:20:14;;;;;;;36.78;32.65;;;14.40;99.90;;;;;;5074987;28;20691;-74
2022/04/23 08:22:42;;;;;;;39.28;33.80;;;14.30;99.90;;;;;;5083217;28;20220;-74
2022/04/23 08:25:10;;;;;;;37.10;33.10;;;14.20;99.90;;;;;;5082080;28;20198;-74
2022/04/23 08:30:34;;;;;;;37.75;33.40;;;14.10;99.90;;;;;;5086003;28;20197;-78
2022/04/23 08:30:45;;;;;;;38.00;33.65;;;14.10;99.90;;;;;;5087673;28;20231;-76
2022/04/23 08:33:13;;;;;;;39.25;33.58;;;14.20;99.90;;;;;;5093205;28;20185;-75
2022/04/23 08:35:43;;;;;;;36.28;32.38;;;14.40;99.90;;;;;;5089049;28;20207;-74
2022/04/23 08:38:11;;;;;;;38.33;33.97;;;14.50;99.90;;;;;;5087898;28;20212;-76
2022/04/23 08:40:45;;;;;;;36.35;32.22;;;14.50;99.90;;;;;;5087133;28;20214;-75
2022/04/23 08:43:14;;;;;;;37.50;33.22;;;14.70;99.90;;;;;;5083708;28;20217;-76
2022/04/23 08:45:44;;;;;;;40.22;33.97;;;14.80;99.90;;;;;;5086364;28;20196;-75
2022/04/23 08:48:12;;;;;;;38.70;34.33;;;14.90;99.90;;;;;;5086839;28;20204;-75
2022/04/23 08:50:42;;;;;;;38.38;34.15;;;14.60;99.90;;;;;;5093956;28;20228;-75
2022/04/23 08:53:17;;;;;;;39.58;34.65;;;14.80;99.90;;;;;;5090071;28;20685;-75
2022/04/23 08:55:46;;;;;;;40.17;34.97;;;14.80;99.90;;;;;;5094539;28;20200;-75
2022/04/23 08:58:17;;;;;;;40.63;35.13;;;14.80;99.90;;;;;;5099044;28;20200;-75
2022/04/23 09:00:45;;;;;;;38.72;34.40;;;15.00;99.90;;;;;;5096023;28;20213;-75
2022/04/23 09:03:14;;;;;;;37.13;32.17;;;15.10;99.90;;;;;;5091992;28;20220;-76
2022/04/23 09:05:43;;;;;;;36.63;32.38;;;15.10;99.90;;;;;;5098156;28;20208;-75
2022/04/23 09:08:11;;;;;;;37.63;33.40;;;15.00;99.90;;;;;;5091384;28;20208;-76
2022/04/23 09:10:46;;;;;;;38.97;33.78;;;15.20;99.90;;;;;;5088403;28;20224;-75
2022/04/23 09:13:27;;;;;;;38.15;33.55;;;15.30;99.90;;;;;;5083307;28;20201;-76
2022/04/23 09:24:56;;;;;;;36.70;32.80;;;15.20;99.90;;;;;;5083721;28;20217;-75
2022/04/23 09:27:30;;;;;;;32.78;29.27;;;15.30;99.90;;;;;;5090068;28;20553;-77
2022/04/23 09:30:03;;;;;;;34.92;31.20;;;15.40;99.90;;;;;;5088642;28;20227;-78
2022/04/23 09:32:57;;;;;;;33.75;30.05;;;15.50;99.90;;;;;;5105043;28;20216;-78
2022/04/23 09:35:25;;;;;;;34.45;30.70;;;15.60;99.90;;;;;;5071772;28;20205;-77
2022/04/23 09:40:39;;;;;;;35.25;31.20;;;15.60;99.90;;;;;;5085378;28;20690;-78
2022/04/23 09:43:08;;;;;;;35.50;31.55;;;15.60;99.90;;;;;;5091288;28;20212;-78
2022/04/23 09:45:41;;;;;;;34.15;30.42;;;15.70;99.90;;;;;;5088249;28;20197;-83
2022/04/23 09:48:17;;;;;;;34.47;30.77;;;15.80;99.90;;;;;;5089656;28;20199;-78
2022/04/23 09:50:46;;;;;;;35.58;30.58;;;16.00;99.90;;;;;;5088983;28;20219;-78
2022/04/23 09:53:19;;;;;;;49.08;32.55;;;15.90;99.90;;;;;;5087565;28;20693;-79
2022/04/23 09:56:13;;;;;;;35.88;31.15;;;16.10;99.90;;;;;;5084640;28;20651;-79
2022/04/23 09:58:41;;;;;;;35.80;31.95;;;16.10;99.90;;;;;;5076028;28;20659;-80
2022/04/23 10:01:10;;;;;;;36.90;30.17;;;16.10;99.90;;;;;;5089949;28;20224;-79
2022/04/23 10:03:39;;;;;;;35.08;31.27;;;16.20;99.90;;;;;;5090323;28;20196;-80
2022/04/23 10:06:09;;;;;;;34.25;30.65;;;16.20;99.90;;;;;;5086591;28;20197;-81
2022/04/23 10:08:41;;;;;;;33.55;28.83;;;16.10;99.60;;;;;;5090084;28;20201;-79
2022/04/23 10:11:13;;;;;;;34.55;30.75;;;16.20;99.30;;;;;;5087517;28;20228;-81
2022/04/23 10:13:44;;;;;;;35.15;29.23;;;16.40;99.40;;;;;;5079822;28;20647;-80
2022/04/23 10:16:13;;;;;;;30.02;26.65;;;16.10;98.90;;;;;;5091272;28;20827;-81
2022/04/23 10:18:43;;;;;;;31.27;27.80;;;16.40;99.70;;;;;;5094626;28;20197;-81
2022/04/23 10:21:22;;;;;;;31.05;27.60;;;16.70;99.00;;;;;;5092062;28;20709;-81
2022/04/23 10:24:05;;;;;;;29.67;25.33;;;16.70;97.30;;;;;;5083645;28;20220;-80
2022/04/23 10:26:39;;;;;;;27.60;24.38;;;16.60;96.70;;;;;;5087733;28;20561;-80
2022/04/23 10:29:14;;;;;;;28.55;25.40;;;16.70;96.70;;;;;;5087236;28;20201;-80
2022/04/23 10:31:44;;;;;;;27.83;24.88;;;16.70;96.70;;;;;;5086325;28;20220;-79
2022/04/23 10:34:34;;;;;;;29.92;26.73;;;16.80;97.00;;;;;;5095944;28;20193;-80
2022/04/23 10:37:15;;;;;;;32.17;27.20;;;17.10;97.50;;;;;;5085469;28;20200;-82
2022/04/23 10:39:43;;;;;;;34.20;27.38;;;17.20;96.30;;;;;;5101983;28;20193;-81
2022/04/23 10:42:15;;;;;;;28.63;25.55;;;17.00;96.10;;;;;;5091537;28;20185;-81
2022/04/23 10:44:44;;;;;;;28.85;25.67;;;17.00;96.50;;;;;;5086512;28;20209;-80
2022/04/23 10:47:29;;;;;;;26.38;23.63;;;17.30;96.00;;;;;;5084951;28;20212;-81
2022/04/23 10:50:27;;;;;;;27.70;24.45;;;17.50;95.30;;;;;;5087366;28;20223;-81
2022/04/23 10:53:03;;;;;;;27.23;24.42;;;17.40;95.10;;;;;;5086526;28;20213;-81
2022/04/23 10:55:31;;;;;;;28.63;25.55;;;17.70;95.20;;;;;;5087188;28;20200;-81
2022/04/23 10:58:22;;;;;;;28.63;25.48;;;17.80;95.60;;;;;;5081347;28;20208;-81
2022/04/23 11:00:52;;;;;;;27.90;25.02;;;17.90;94.40;;;;;;5080540;28;20584;-80
2022/04/23 11:03:28;;;;;;;27.98;24.98;;;18.00;94.00;;;;;;5088948;28;20203;-81
2022/04/23 11:14:45;;;;;;;28.60;25.52;;;17.40;94.00;;;;;;5086125;28;20189;-82
2022/04/23 11:17:49;;;;;;;30.17;26.15;;;17.80;94.30;;;;;;5084568;28;20196;-81
2022/04/23 11:20:29;;;;;;;25.70;23.02;;;17.90;92.80;;;;;;5036606;28;20221;-82
2022/04/23 11:22:59;;;;;;;26.85;23.95;;;17.90;93.10;;;;;;5088721;28;20189;-81
2022/04/23 11:25:28;;;;;;;27.95;24.98;;;17.80;92.70;;;;;;5084179;28;20228;-79
2022/04/23 11:28:01;;;;;;;26.33;23.73;;;17.90;93.50;;;;;;5086303;28;20193;-80
2022/04/23 11:30:30;;;;;;;25.40;22.90;;;18.20;93.10;;;;;;5086733;28;20232;-80
2022/04/23 11:33:11;;;;;;;27.23;24.30;;;18.00;92.60;;;;;;5094059;28;20200;-80
2022/04/23 11:35:43;;;;;;;26.02;23.30;;;17.80;92.80;;;;;;5089730;28;20193;-80
2022/04/23 11:38:26;;;;;;;27.00;24.10;;;17.50;92.60;;;;;;5085616;28;20220;-83
2022/04/23 11:40:56;;;;;;;26.45;23.48;;;17.20;93.00;;;;;;5095707;28;20232;-80
2022/04/23 11:43:32;;;;;;;25.77;23.10;;;17.50;93.30;;;;;;5092379;28;20208;-80
2022/04/23 11:46:11;;;;;;;25.90;23.20;;;17.40;92.70;;;;;;5090562;28;20216;-80
2022/04/23 11:48:43;;;;;;;27.27;23.27;;;17.30;92.50;;;;;;5086769;28;20220;-80
2022/04/23 11:51:13;;;;;;;27.63;24.75;;;17.50;92.60;;;;;;5092196;28;20722;-83
2022/04/23 11:54:02;;;;;;;26.70;23.98;;;17.60;92.60;;;;;;5085549;28;20678;-80
2022/04/23 11:56:51;;;;;;;24.83;22.23;;;17.70;92.80;;;;;;5080692;28;20196;-80
2022/04/23 11:59:21;;;;;;;22.48;20.27;;;17.50;92.20;;;;;;5090959;28;20561;-81
2022/04/23 12:01:49;;;;;;;22.02;19.73;;;17.30;91.80;;;;;;5092431;28;20227;-80
2022/04/23 12:04:16;;;;;;;21.92;19.50;;;17.70;91.20;;;;;;5092348;28;20209;-81
2022/04/23 12:06:46;;;;;;;22.73;20.30;;;17.90;91.10;;;;;;5086995;28;20706;-80
2022/04/23 12:09:16;;;;;;;24.40;21.77;;;18.20;90.50;;;;;;5098833;28;20414;-80
2022/04/23 12:11:44;;;;;;;22.42;20.13;;;18.30;90.50;;;;;;5088211;28;20729;-80
2022/04/23 12:14:11;;;;;;;20.08;17.95;;;18.30;90.50;;;;;;5089100;28;20667;-80
2022/04/23 12:16:42;;;;;;;22.00;19.15;;;18.20;89.70;;;;;;5092433;28;20603;-80
2022/04/23 12:19:12;;;;;;;19.70;17.70;;;18.40;89.50;;;;;;5094433;28;20193;-80
2022/04/23 12:21:58;;;;;;;19.90;17.90;;;18.70;88.40;;;;;;5084286;28;20222;-80
2022/04/23 12:24:36;;;;;;;20.88;18.50;;;18.90;86.40;;;;;;5091990;28;20208;-80
2022/04/23 12:27:09;;;;;;;20.10;18.02;;;19.30;84.00;;;;;;5054122;28;20226;-80
2022/04/23 12:40:58;;;;;;;24.40;21.83;;;18.20;85.70;;;;;;5043843;28;20217;-82
2022/04/23 12:43:30;;;;;;;21.08;18.88;;;17.90;87.70;;;;;;5067943;28;20202;-85
2022/04/23 12:46:09;;;;;;;23.98;21.38;;;17.80;88.60;;;;;;5061803;28;20211;-82
2022/04/23 12:48:56;;;;;;;23.95;21.45;;;17.60;88.60;;;;;;5030982;28;20195;-78
2022/04/23 12:51:24;;;;;;;22.17;19.77;;;17.40;87.90;;;;;;5026237;28;20231;-79
2022/04/23 12:53:52;;;;;;;24.10;21.60;;;17.50;90.00;;;;;;5027437;28;20204;-81
2022/04/23 12:56:32;;;;;;;23.15;20.42;;;17.70;88.50;;;;;;5029874;28;20202;-79
2022/04/23 12:59:00;;;;;;;24.05;21.50;;;17.80;90.20;;;;;;5040975;28;20199;-81
2022/04/23 13:01:28;;;;;;;22.75;20.52;;;17.80;89.30;;;;;;5032053;28;20223;-79
2022/04/23 13:03:55;;;;;;;24.58;21.98;;;17.90;88.80;;;;;;5021868;28;20582;-79
2022/04/23 13:09:11;;;;;;;23.70;21.23;;;17.40;88.40;;;;;;5029690;28;20195;-80
2022/04/23 13:11:40;;;;;;;23.10;20.80;;;17.30;89.00;;;;;;5042463;28;20227;-81
2022/04/23 13:14:08;;;;;;;23.45;20.80;;;17.50;88.80;;;;;;5031045;28;20653;-79
2022/04/23 13:16:42;;;;;;;21.02;18.92;;;17.50;88.10;;;;;;5030811;28;20199;-79
2022/04/23 13:19:16;;;;;;;22.15;19.85;;;17.50;88.60;;;;;;5030355;28;20199;-79
2022/04/23 13:21:43;;;;;;;21.75;19.45;;;17.60;88.70;;;;;;5030994;28;20219;-79
2022/04/23 13:24:12;;;;;;;22.02;19.70;;;17.80;88.00;;;;;;5028985;28;20207;-80